Humidity-temperature Sensor

Selected Measurement Type: Relative Humidity

 
Relative Humidity [%]     6 entries per hour
Showing data from 4/6/2016 (00:00:00 Z) to 4/3/2016 (00:01:00 Z)
Previous Next [ Day | 3-Days | 7-Days ]
First Last
Prev [ Day | 3-Days | 7-Days ] Next
First Last

Start Time:     :
End Time:     :     
Time (in GMT) :00 :50 :40 :30 :20 :10
Previous Next [ Day | 3-Days | 7-Days ]
First Last
Prev [ Day | 3-Days | 7-Days ] Next
First Last


123 => good data
MM => data is determined as missing
-- => data not received/configured
Back to Top Back to Top
4/6/2016 00:00 to 23:10 83.84 83.78 82.83 83.13 84.16 83.68
4/5/2016 23:00 to 22:10 84.47 84.47 85.29 84.32 84.99 85.42
4/5/2016 22:00 to 21:10 85.54 85.78 85.27 86.77 86.81 86.47
4/5/2016 21:00 to 20:10 87.25 86.28 85.78 86.22 85.82 85.68
4/5/2016 20:00 to 19:10 85.94 84.99 85.68 85.11 85.09 84.91
4/5/2016 19:00 to 18:10 84.61 84.71 85.03 85.50 84.99 85.50
4/5/2016 18:00 to 17:10 84.97 85.46 87.66 86.22 85.82 85.88
4/5/2016 17:00 to 16:10 86.00 86.14 86.35 86.12 86.39 86.26
4/5/2016 16:00 to 15:10 87.94 87.48 86.87 85.96 85.68 86.32
4/5/2016 15:00 to 14:10 85.94 84.14 84.77 86.87 85.54 86.24
4/5/2016 14:00 to 13:10 86.20 86.00 86.10 86.47 86.47 86.04
4/5/2016 13:00 to 12:10 86.12 86.87 86.57 86.10 86.79 86.43
4/5/2016 12:00 to 11:10 86.20 86.39 87.11 86.08 86.43 85.78
4/5/2016 11:00 to 10:10 84.77 86.59 87.40 86.41 87.15 87.09
4/5/2016 10:00 to 9:10 86.87 87.36 85.80 86.41 87.66 87.40
4/5/2016 09:00 to 8:10 86.20 87.21 87.11 88.59 87.66 86.93
4/5/2016 08:00 to 7:10 85.27 84.16 86.08 85.31 86.55 85.82
4/5/2016 07:00 to 6:10 85.88 85.46 86.53 85.72 85.19 85.54
4/5/2016 06:00 to 5:10 86.97 86.83 85.48 86.39 89.15 88.29
4/5/2016 05:00 to 4:10 87.88 86.93 87.60 90.23 90.43 87.21
4/5/2016 04:00 to 3:10 86.55 85.21 85.17 86.67 85.82 85.19
4/5/2016 03:00 to 2:10 84.43 84.38 82.71 83.52 84.20 83.56
4/5/2016 02:00 to 1:10 82.77 82.51 82.34 81.31 80.85 82.77
4/5/2016 01:00 to 0:10 80.71 80.95 80.53 81.17 82.69 80.73
4/5/2016 00:00 to 23:10 80.57 82.22 82.00 80.38 80.40 81.54
4/4/2016 23:00 to 22:10 79.90 79.05 79.41 79.03 79.98 79.29
4/4/2016 22:00 to 21:10 80.42 81.23 80.75 81.25 82.12 82.26
4/4/2016 21:00 to 20:10 81.43 82.04 82.08 82.20 81.45 81.88
4/4/2016 20:00 to 19:10 82.73 82.63 83.52 82.59 81.80 82.65
4/4/2016 19:00 to 18:10 82.51 81.86 81.33 82.69 81.66 80.46
4/4/2016 18:00 to 17:10 80.18 81.52 81.45 82.55 81.35 82.00
4/4/2016 17:00 to 16:10 81.92 82.77 82.53 83.25 81.70 82.67
4/4/2016 16:00 to 15:10 82.95 83.46 82.61 81.37 80.12 80.89
4/4/2016 15:00 to 14:10 80.71 81.56 80.87 80.83 80.93 80.85
4/4/2016 14:00 to 13:10 81.58 82.22 82.73 82.24 83.86 83.25
4/4/2016 13:00 to 12:10 82.97 82.81 83.09 83.72 82.99 83.29
4/4/2016 12:00 to 11:10 83.31 83.31 83.54 83.54 83.07 83.54
4/4/2016 11:00 to 10:10 82.26 82.14 82.93 83.56 84.14 84.18
4/4/2016 10:00 to 9:10 84.20 85.25 85.01 84.85 84.47 84.10
4/4/2016 09:00 to 8:10 84.91 84.18 83.58 82.42 82.73 83.96
4/4/2016 08:00 to 7:10 83.50 83.74 84.51 84.16 83.96 83.68
4/4/2016 07:00 to 6:10 82.93 82.85 82.26 81.78 82.16 82.36
4/4/2016 06:00 to 5:10 81.41 81.27 80.83 81.15 81.35 80.53
4/4/2016 05:00 to 4:10 82.42 83.39 82.91 82.36 82.12 82.61
4/4/2016 04:00 to 3:10 82.04 83.03 83.41 82.67 82.83 81.62
4/4/2016 03:00 to 2:10 81.25 80.55 80.99 82.04 81.05 81.66
4/4/2016 02:00 to 1:10 82.61 83.96 83.11 82.10 81.27 80.71
4/4/2016 01:00 to 0:10 79.27 77.84 77.78 77.11 78.63 77.21
4/4/2016 00:00 to 23:10 76.54 76.87 77.55 77.41 77.45 78.89
4/3/2016 23:00 to 22:10 78.46 79.74 80.08 79.90 81.35 80.89
4/3/2016 22:00 to 21:10 79.31 78.56 79.82 80.48 80.14 81.33
4/3/2016 21:00 to 20:10 80.95 80.08 80.85 81.56 81.64 81.88
4/3/2016 20:00 to 19:10 81.43 82.53 82.44 81.62 82.28 81.94
4/3/2016 19:00 to 18:10 82.30 82.87 82.61 82.99 82.36 83.76
4/3/2016 18:00 to 17:10 84.00 84.49 84.12 84.61 83.13 82.73
4/3/2016 17:00 to 16:10 84.12 84.57 85.72 85.92 86.22 85.92
4/3/2016 16:00 to 15:10 84.73 84.57 85.17 84.18 83.03 83.72
4/3/2016 15:00 to 14:10 84.59 85.13 86.08 85.27 85.64 85.38
4/3/2016 14:00 to 13:10 85.35 84.99 85.88 86.77 86.97 87.09
4/3/2016 13:00 to 12:10 85.52 85.46 87.46 88.18 88.61 87.52
4/3/2016 12:00 to 11:10 85.94 86.12 86.73 86.30 86.10 85.84
4/3/2016 11:00 to 10:10 86.00 86.16 86.41 85.86 86.49 87.21
4/3/2016 10:00 to 9:10 87.34 86.65 87.17 87.13 86.97 86.14
4/3/2016 09:00 to 8:10 86.30 86.32 86.69 87.21 85.48 86.49
4/3/2016 08:00 to 7:10 86.12 85.78 85.66 86.00 85.50 85.09
4/3/2016 07:00 to 6:10 85.46 85.15 84.43 83.76 83.96 83.84
4/3/2016 06:00 to 5:10 85.03 84.14 84.73 84.49 84.28 83.98
4/3/2016 05:00 to 4:10 84.49 84.00 83.74 83.31 83.09 83.46
4/3/2016 04:00 to 3:10 83.21 82.97 83.54 81.33 82.44 83.41
4/3/2016 03:00 to 2:10 82.34 81.86 82.22 82.24 81.54 81.92
4/3/2016 02:00 to 1:10 81.52 81.39 81.70 80.48 79.58 80.32
4/3/2016 01:00 to 0:10 78.85 76.79 76.12 75.49 76.46 77.68